createdAt,value
2017-10-11T00:00:06.700Z,11.6
2017-10-11T00:01:25.393Z,11.6
2017-10-11T00:02:44.108Z,11.7
2017-10-11T00:04:02.778Z,11.7
2017-10-11T00:05:21.468Z,11.7
2017-10-11T00:06:40.194Z,11.7
2017-10-11T00:07:58.904Z,11.7
2017-10-11T00:09:17.600Z,11.7
2017-10-11T00:10:36.277Z,11.7
2017-10-11T00:11:54.996Z,11.6
2017-10-11T00:13:13.658Z,11.6
2017-10-11T00:14:32.323Z,11.6
2017-10-11T00:15:50.985Z,11.6
2017-10-11T00:17:09.676Z,11.7
2017-10-11T00:18:28.337Z,11.6
2017-10-11T00:19:47.010Z,11.6
2017-10-11T00:21:05.679Z,11.6
2017-10-11T00:22:24.350Z,11.6
2017-10-11T00:23:43.070Z,11.6
2017-10-11T00:25:01.786Z,11.6
2017-10-11T00:26:20.501Z,11.7
2017-10-11T00:27:39.212Z,11.7
2017-10-11T00:28:57.877Z,11.6
2017-10-11T00:30:16.548Z,11.6
2017-10-11T00:31:35.265Z,11.6
2017-10-11T00:32:53.940Z,11.6
2017-10-11T00:34:12.658Z,11.6
2017-10-11T00:35:31.317Z,11.6
2017-10-11T00:36:49.984Z,11.6
2017-10-11T00:38:08.729Z,11.6
2017-10-11T00:39:27.395Z,11.6
2017-10-11T00:40:46.119Z,11.6
2017-10-11T00:42:04.821Z,11.6
2017-10-11T00:43:23.536Z,11.6
2017-10-11T00:44:42.254Z,11.6
2017-10-11T00:46:00.922Z,11.6
2017-10-11T00:47:19.609Z,11.6
2017-10-11T00:48:38.282Z,11.6
2017-10-11T00:49:56.973Z,11.6
2017-10-11T00:51:15.674Z,11.6
2017-10-11T00:52:34.328Z,11.6
2017-10-11T00:53:53.064Z,11.6
2017-10-11T00:55:11.731Z,11.6
2017-10-11T00:56:30.452Z,11.6
2017-10-11T00:57:49.113Z,11.6
2017-10-11T00:59:07.829Z,11.6
2017-10-11T01:00:26.491Z,11.6
2017-10-11T01:01:45.154Z,11.6
2017-10-11T01:03:03.815Z,11.6
2017-10-11T01:04:22.542Z,11.6
2017-10-11T01:05:41.218Z,11.6
2017-10-11T01:06:59.896Z,11.6
2017-10-11T01:08:18.561Z,11.6
2017-10-11T01:09:37.256Z,11.6
2017-10-11T01:10:55.941Z,11.6
2017-10-11T01:12:14.626Z,11.6
2017-10-11T01:13:33.332Z,11.6
2017-10-11T01:14:52.030Z,11.5
2017-10-11T01:16:10.696Z,11.5
2017-10-11T01:17:29.385Z,11.5
2017-10-11T01:18:48.068Z,11.5
2017-10-11T01:20:06.777Z,11.5
2017-10-11T01:21:25.444Z,11.5
2017-10-11T01:22:44.110Z,11.5
2017-10-11T01:24:02.825Z,11.5
2017-10-11T01:25:21.505Z,11.5
2017-10-11T01:26:40.173Z,11.5
2017-10-11T01:27:58.855Z,11.5
2017-10-11T01:29:17.517Z,11.5
2017-10-11T01:30:36.221Z,11.5
2017-10-11T01:31:54.891Z,11.5
2017-10-11T01:33:13.547Z,11.6
2017-10-11T01:34:32.207Z,11.6
2017-10-11T01:35:50.882Z,11.6
2017-10-11T01:37:09.591Z,11.6
2017-10-11T01:38:28.251Z,11.6
2017-10-11T01:39:46.959Z,11.6
2017-10-11T01:41:05.681Z,11.6
2017-10-11T01:42:24.376Z,11.6
2017-10-11T01:43:43.040Z,11.6
2017-10-11T01:45:01.750Z,11.6
2017-10-11T01:46:20.447Z,11.6
2017-10-11T01:47:39.150Z,11.6
2017-10-11T01:48:57.867Z,11.6
2017-10-11T01:50:16.532Z,11.6
2017-10-11T01:51:35.202Z,11.6
2017-10-11T01:52:53.863Z,11.6
2017-10-11T01:54:12.519Z,11.6
2017-10-11T01:55:31.178Z,11.6
2017-10-11T01:56:49.921Z,11.6
2017-10-11T01:58:08.588Z,11.6
2017-10-11T01:59:27.245Z,11.6
2017-10-11T02:00:45.970Z,11.6
2017-10-11T02:02:04.694Z,11.6
2017-10-11T02:03:23.392Z,11.6
2017-10-11T02:04:42.061Z,11.6
2017-10-11T02:06:00.721Z,11.6
2017-10-11T02:07:19.438Z,11.6
2017-10-11T02:08:38.096Z,11.6
2017-10-11T02:09:56.792Z,11.6
2017-10-11T02:11:15.452Z,11.6
2017-10-11T02:12:34.140Z,11.6
2017-10-11T02:13:52.837Z,11.6
2017-10-11T02:15:11.499Z,11.6
2017-10-11T02:16:30.170Z,11.6
2017-10-11T02:17:48.880Z,11.5
2017-10-11T02:19:07.604Z,11.6
2017-10-11T02:20:26.299Z,11.6
2017-10-11T02:21:44.977Z,11.5
2017-10-11T02:23:03.647Z,11.5
2017-10-11T02:24:22.314Z,11.5
2017-10-11T02:25:41.023Z,11.5
2017-10-11T02:26:59.705Z,11.5
2017-10-11T02:28:18.389Z,11.5
2017-10-11T02:29:37.054Z,11.6
2017-10-11T02:30:55.727Z,11.6
2017-10-11T02:32:14.400Z,11.5
2017-10-11T02:33:33.149Z,11.5
2017-10-11T02:34:51.824Z,11.5
2017-10-11T02:36:10.538Z,11.5
2017-10-11T02:37:29.227Z,11.5
2017-10-11T02:38:47.896Z,11.5
2017-10-11T02:40:06.552Z,11.5
2017-10-11T02:41:25.250Z,11.6
2017-10-11T02:42:43.975Z,11.6
2017-10-11T02:44:02.643Z,11.5
2017-10-11T02:45:21.329Z,11.5
2017-10-11T02:46:40.000Z,11.5
2017-10-11T02:47:58.658Z,11.5
2017-10-11T02:49:17.363Z,11.5
2017-10-11T02:50:36.079Z,11.5
2017-10-11T02:51:54.742Z,11.5
2017-10-11T02:53:13.406Z,11.5
2017-10-11T02:54:32.116Z,11.5
2017-10-11T02:55:50.800Z,11.5
2017-10-11T02:57:09.462Z,11.5
2017-10-11T02:58:28.164Z,11.5
2017-10-11T02:59:46.831Z,11.5
2017-10-11T03:01:05.529Z,11.6
2017-10-11T03:02:24.260Z,11.5
2017-10-11T03:03:42.980Z,11.5
2017-10-11T03:05:01.681Z,11.5
2017-10-11T03:06:20.344Z,11.5
2017-10-11T03:07:39.074Z,11.5
2017-10-11T03:08:57.731Z,11.5
2017-10-11T03:10:16.447Z,11.5
2017-10-11T03:11:35.113Z,11.5
2017-10-11T03:12:53.775Z,11.5
2017-10-11T03:14:12.465Z,11.5
2017-10-11T03:15:31.148Z,11.5
2017-10-11T03:16:49.810Z,11.5
2017-10-11T03:18:08.480Z,11.5
2017-10-11T03:19:27.189Z,11.5
2017-10-11T03:20:45.945Z,11.5
2017-10-11T03:22:04.643Z,11.5
2017-10-11T03:23:23.373Z,11.5
2017-10-11T03:24:42.038Z,11.5
2017-10-11T03:26:00.734Z,11.5
2017-10-11T03:27:19.396Z,11.5
2017-10-11T03:28:38.057Z,11.5
2017-10-11T03:29:56.766Z,11.5
2017-10-11T03:31:15.469Z,11.5
2017-10-11T03:32:34.150Z,11.5
2017-10-11T03:33:52.810Z,11.5
2017-10-11T03:35:11.510Z,11.5
2017-10-11T03:36:30.211Z,11.5
2017-10-11T03:37:48.933Z,11.5
2017-10-11T03:39:07.602Z,11.5
2017-10-11T03:40:26.302Z,11.5
2017-10-11T03:41:44.989Z,11.5
2017-10-11T03:43:03.657Z,11.5
2017-10-11T03:44:22.354Z,11.5
2017-10-11T03:45:41.020Z,11.5
2017-10-11T03:46:59.692Z,11.4
2017-10-11T03:48:18.354Z,11.4
2017-10-11T03:49:37.013Z,11.4
2017-10-11T03:50:55.682Z,11.3
2017-10-11T03:52:14.385Z,11.3
2017-10-11T03:53:33.090Z,11.3
2017-10-11T03:54:51.753Z,11.3
2017-10-11T03:56:10.440Z,11.3
2017-10-11T03:57:29.124Z,11.2
2017-10-11T03:58:47.785Z,11
2017-10-11T04:00:06.470Z,10.8
2017-10-11T04:01:25.182Z,10.7
2017-10-11T04:02:43.884Z,10.6
2017-10-11T04:04:02.550Z,10.7
2017-10-11T04:05:21.222Z,10.7
2017-10-11T04:06:39.883Z,10.7
2017-10-11T04:07:58.600Z,10.7
2017-10-11T04:09:17.263Z,10.7
2017-10-11T04:10:35.941Z,10.8
2017-10-11T04:11:54.608Z,10.9
2017-10-11T04:13:13.276Z,10.9
2017-10-11T04:14:31.939Z,11
2017-10-11T04:15:50.655Z,11
2017-10-11T04:17:09.335Z,11
2017-10-11T04:18:28.013Z,11
2017-10-11T04:19:46.684Z,11
2017-10-11T04:21:05.356Z,11
2017-10-11T04:22:24.013Z,10.9
2017-10-11T04:23:42.714Z,10.9
2017-10-11T04:25:01.372Z,10.9
2017-10-11T04:26:20.033Z,11
2017-10-11T04:27:38.726Z,11.1
2017-10-11T04:28:57.401Z,11.2
2017-10-11T04:30:16.122Z,11.2
2017-10-11T04:31:34.781Z,11.3
2017-10-11T04:32:53.449Z,11.3
2017-10-11T04:34:12.179Z,11.3
2017-10-11T04:35:30.840Z,11.3
2017-10-11T04:36:49.508Z,11.3
2017-10-11T04:38:08.164Z,11.3
2017-10-11T04:39:26.900Z,11.3
2017-10-11T04:40:45.578Z,11.4
2017-10-11T04:42:04.262Z,11.4
2017-10-11T04:43:22.924Z,11.4
2017-10-11T04:44:41.626Z,11.3
2017-10-11T04:46:00.295Z,11.3
2017-10-11T04:47:18.975Z,11.3
2017-10-11T04:48:37.652Z,11.3
2017-10-11T04:49:56.317Z,11.3
2017-10-11T04:51:14.977Z,11.4
2017-10-11T04:52:33.664Z,11.3
2017-10-11T04:53:52.378Z,11.1
2017-10-11T04:55:11.091Z,11
2017-10-11T04:56:29.813Z,10.8
2017-10-11T04:57:48.516Z,10.7
2017-10-11T04:59:07.231Z,10.7
2017-10-11T05:00:25.960Z,10.7
2017-10-11T05:01:44.664Z,10.7
2017-10-11T05:03:03.324Z,10.7
2017-10-11T05:04:22.083Z,10.8
2017-10-11T05:05:40.795Z,10.9
2017-10-11T05:06:59.463Z,11
2017-10-11T05:08:18.171Z,11
2017-10-11T05:09:36.890Z,11.1
2017-10-11T05:10:55.593Z,11.1
2017-10-11T05:12:14.259Z,11.1
2017-10-11T05:13:32.914Z,11.2
2017-10-11T05:14:51.578Z,11.2
2017-10-11T05:16:10.310Z,11.2
2017-10-11T05:17:28.966Z,11.2
2017-10-11T05:18:47.636Z,11.3
2017-10-11T05:20:06.349Z,11.3
2017-10-11T05:21:25.038Z,11.3
2017-10-11T05:22:43.696Z,11.3
2017-10-11T05:24:02.362Z,11.3
2017-10-11T05:25:21.077Z,11.3
2017-10-11T05:26:39.779Z,11.3
2017-10-11T05:27:58.466Z,11.3
2017-10-11T05:29:17.127Z,11.4
2017-10-11T05:30:35.799Z,11.4
2017-10-11T05:31:54.476Z,11.4
2017-10-11T05:33:13.143Z,11.4
2017-10-11T05:34:31.888Z,11.4
2017-10-11T05:35:50.551Z,11.4
2017-10-11T05:37:09.249Z,11.5
2017-10-11T05:38:27.912Z,11.5
2017-10-11T05:39:46.571Z,11.5
2017-10-11T05:41:05.239Z,11.5
2017-10-11T05:42:23.942Z,11.5
2017-10-11T05:43:42.607Z,11.5
2017-10-11T05:45:01.274Z,11.5
2017-10-11T05:46:19.943Z,11.5
2017-10-11T05:47:38.619Z,11.5
2017-10-11T05:48:57.286Z,11.5
2017-10-11T05:50:15.948Z,11.5
2017-10-11T05:51:34.615Z,11.5
2017-10-11T05:52:53.384Z,11.5
2017-10-11T05:54:12.046Z,11.5
2017-10-11T05:55:30.704Z,11.5
2017-10-11T05:56:49.367Z,11.5
2017-10-11T05:58:08.073Z,11.5
2017-10-11T05:59:26.771Z,11.5
2017-10-11T06:00:45.437Z,11.5
2017-10-11T06:02:04.104Z,11.6
2017-10-11T06:03:22.814Z,11.6
2017-10-11T06:04:41.478Z,11.6
2017-10-11T06:06:00.139Z,11.6
2017-10-11T06:07:18.835Z,11.6
2017-10-11T06:08:37.523Z,11.7
2017-10-11T06:09:56.179Z,11.7
2017-10-11T06:11:14.852Z,11.7
2017-10-11T06:12:33.518Z,11.7
2017-10-11T06:13:52.239Z,11.7
2017-10-11T06:15:10.944Z,11.8
2017-10-11T06:16:29.648Z,11.8
2017-10-11T06:17:48.340Z,11.9
2017-10-11T06:19:07.064Z,11.9
2017-10-11T06:20:25.725Z,11.9
2017-10-11T06:21:44.389Z,11.9
2017-10-11T06:23:03.078Z,11.9
2017-10-11T06:24:21.811Z,11.9
2017-10-11T06:25:40.473Z,11.9
2017-10-11T06:26:59.188Z,11.9
2017-10-11T06:28:17.855Z,11.9
2017-10-11T06:29:36.630Z,11.8
2017-10-11T06:30:55.295Z,11.9
2017-10-11T06:32:13.965Z,11.8
2017-10-11T06:33:32.665Z,11.9
2017-10-11T06:34:51.340Z,11.9
2017-10-11T06:36:10.013Z,11.9
2017-10-11T06:37:28.680Z,11.9
2017-10-11T06:38:47.351Z,11.9
2017-10-11T06:40:06.036Z,11.9
2017-10-11T06:41:24.701Z,11.8
2017-10-11T06:42:43.369Z,11.9
2017-10-11T06:44:02.038Z,11.9
2017-10-11T06:45:20.770Z,11.9
2017-10-11T06:46:39.447Z,11.9
2017-10-11T06:47:58.140Z,11.9
2017-10-11T06:49:16.808Z,11.9
2017-10-11T06:50:35.490Z,11.9
2017-10-11T06:51:54.197Z,11.8
2017-10-11T06:53:12.859Z,11.8
2017-10-11T06:54:31.544Z,11.7
2017-10-11T06:55:50.277Z,11.7
2017-10-11T06:57:08.962Z,11.8
2017-10-11T06:58:27.636Z,11.8
2017-10-11T06:59:46.304Z,11.8
2017-10-11T07:01:05.027Z,11.8
2017-10-11T07:02:23.696Z,11.8
2017-10-11T07:03:42.404Z,11.8
2017-10-11T07:05:01.064Z,11.8
2017-10-11T07:06:19.786Z,11.8
2017-10-11T07:07:38.451Z,11.8
2017-10-11T07:08:57.162Z,11.8
2017-10-11T07:10:15.874Z,11.8
2017-10-11T07:11:34.574Z,11.8
2017-10-11T07:12:53.243Z,11.8
2017-10-11T07:14:11.912Z,11.8
2017-10-11T07:15:30.575Z,11.8
2017-10-11T07:16:49.310Z,11.8
2017-10-11T07:18:08.001Z,11.7
2017-10-11T07:19:26.692Z,11.7
2017-10-11T07:20:45.402Z,11.8
2017-10-11T07:22:04.101Z,11.8
2017-10-11T07:23:22.775Z,11.8
2017-10-11T07:24:41.460Z,11.7
2017-10-11T07:26:00.121Z,11.8
2017-10-11T07:27:18.815Z,11.8
2017-10-11T07:28:37.516Z,11.8
2017-10-11T07:29:56.231Z,11.8
2017-10-11T07:31:14.949Z,11.7
2017-10-11T07:32:33.666Z,11.7
2017-10-11T07:33:52.380Z,11.8
2017-10-11T07:35:11.067Z,11.7
2017-10-11T07:36:29.744Z,11.8
2017-10-11T07:37:48.480Z,11.9
2017-10-11T07:39:07.154Z,11.8
2017-10-11T07:40:25.815Z,11.9
2017-10-11T07:41:44.475Z,11.9
2017-10-11T07:43:03.201Z,11.9
2017-10-11T07:44:21.888Z,12
2017-10-11T07:45:40.547Z,12
2017-10-11T07:46:59.239Z,12
2017-10-11T07:48:17.997Z,12
2017-10-11T07:49:36.659Z,12.1
2017-10-11T07:50:55.320Z,12.2
2017-10-11T07:52:13.988Z,12.2
2017-10-11T07:53:32.687Z,12.2
2017-10-11T07:54:51.362Z,12.2
2017-10-11T07:56:10.024Z,12.2
2017-10-11T07:57:28.691Z,12.2
2017-10-11T07:58:47.383Z,12.2
2017-10-11T08:00:06.092Z,12.3
2017-10-11T08:01:24.806Z,12.3
2017-10-11T08:02:43.525Z,12.5
2017-10-11T08:04:02.223Z,12.5
2017-10-11T08:05:20.900Z,12.5
2017-10-11T08:06:39.565Z,12.7
2017-10-11T08:07:58.229Z,12.7
2017-10-11T08:09:16.924Z,12.8
2017-10-11T08:10:35.597Z,12.9
2017-10-11T08:11:54.274Z,12.8
2017-10-11T08:13:12.955Z,12.9
2017-10-11T08:14:31.647Z,13
2017-10-11T08:15:50.310Z,13.1
2017-10-11T08:17:09.029Z,13.1
2017-10-11T08:18:27.719Z,13.3
2017-10-11T08:19:46.434Z,13.3
2017-10-11T08:21:05.118Z,13.3
2017-10-11T08:22:23.829Z,13.4
2017-10-11T08:23:42.567Z,13.6
2017-10-11T08:25:01.285Z,13.8
2017-10-11T08:26:19.952Z,13.9
2017-10-11T08:27:38.616Z,13.9
2017-10-11T08:28:57.277Z,13.6
2017-10-11T08:30:16.010Z,13.4
2017-10-11T08:31:34.674Z,13.3
2017-10-11T08:32:53.334Z,13.2
2017-10-11T08:34:12.026Z,13.2
2017-10-11T08:35:30.753Z,13
2017-10-11T08:36:49.422Z,12.9
2017-10-11T08:38:08.139Z,12.8
2017-10-11T08:39:26.814Z,12.8
2017-10-11T08:40:45.487Z,12.8
2017-10-11T08:42:04.212Z,12.9
2017-10-11T08:43:22.882Z,13
2017-10-11T08:44:41.543Z,13.2
2017-10-11T08:46:00.236Z,13.4
2017-10-11T08:47:18.902Z,13.4
2017-10-11T08:48:37.591Z,13.3
2017-10-11T08:49:56.266Z,13.4
2017-10-11T08:51:14.996Z,13.5
2017-10-11T08:52:33.706Z,13.4
2017-10-11T08:53:52.366Z,13.5
2017-10-11T08:55:11.078Z,13.5
2017-10-11T08:56:29.761Z,13.5
2017-10-11T08:57:48.465Z,13.6
2017-10-11T08:59:07.127Z,13.7
2017-10-11T09:00:25.794Z,13.8
2017-10-11T09:01:44.534Z,13.9
2017-10-11T09:03:03.207Z,13.9
2017-10-11T09:04:21.905Z,14
2017-10-11T09:05:40.603Z,13.8
2017-10-11T09:06:59.303Z,13.8
2017-10-11T09:08:17.974Z,13.7
2017-10-11T09:09:36.644Z,13.5
2017-10-11T09:10:55.311Z,13.5
2017-10-11T09:12:13.993Z,13.6
2017-10-11T09:13:32.725Z,13.7
2017-10-11T09:14:51.437Z,13.6
2017-10-11T09:16:10.139Z,13.6
2017-10-11T09:17:28.820Z,13.5
2017-10-11T09:18:47.525Z,13.4
2017-10-11T09:20:06.188Z,13.4
2017-10-11T09:21:24.871Z,13.4
2017-10-11T09:22:43.569Z,13.5
2017-10-11T09:24:02.233Z,13.7
2017-10-11T09:25:20.925Z,13.8
2017-10-11T09:26:39.618Z,13.7
2017-10-11T09:27:58.289Z,13.6
2017-10-11T09:29:16.953Z,13.5
2017-10-11T09:30:35.619Z,13.5
2017-10-11T09:31:54.276Z,13.4
2017-10-11T09:33:12.951Z,13.3
2017-10-11T09:34:31.608Z,13.2
2017-10-11T09:35:50.272Z,13.2
2017-10-11T09:37:08.933Z,13.1
2017-10-11T09:38:27.644Z,13
2017-10-11T09:39:46.357Z,13
2017-10-11T09:41:05.058Z,13
2017-10-11T09:42:23.730Z,13
2017-10-11T09:43:42.428Z,12.9
2017-10-11T09:45:01.091Z,13
2017-10-11T09:46:19.757Z,13
2017-10-11T09:47:38.424Z,13.1
2017-10-11T09:48:57.118Z,13.1
2017-10-11T09:50:15.832Z,13
2017-10-11T09:51:34.497Z,13
2017-10-11T09:52:53.165Z,13
2017-10-11T09:54:11.861Z,13.2
2017-10-11T09:55:30.521Z,13.3
2017-10-11T09:56:49.210Z,13.5
2017-10-11T09:58:07.893Z,13.5
2017-10-11T09:59:26.563Z,13.5
2017-10-11T10:00:45.235Z,13.5
2017-10-11T10:02:03.935Z,13.3
2017-10-11T10:03:22.613Z,13.3
2017-10-11T10:04:41.356Z,13.2
2017-10-11T10:06:00.024Z,13.3
2017-10-11T10:07:18.743Z,13.2
2017-10-11T10:08:37.446Z,13.3
2017-10-11T10:09:56.144Z,13.4
2017-10-11T10:11:14.808Z,13.8
2017-10-11T10:12:33.468Z,14.2
2017-10-11T10:13:52.198Z,14.6
2017-10-11T10:15:10.869Z,14.6
2017-10-11T10:16:29.530Z,14.8
2017-10-11T10:17:48.191Z,14.9
2017-10-11T10:19:06.853Z,15.1
2017-10-11T10:20:25.549Z,15.2
2017-10-11T10:21:44.210Z,15.4
2017-10-11T10:23:02.878Z,15.6
2017-10-11T10:24:21.569Z,15.6
2017-10-11T10:25:40.337Z,15.8
2017-10-11T10:26:59.007Z,15.9
2017-10-11T10:28:17.683Z,16.1
2017-10-11T10:29:36.358Z,16.1
2017-10-11T10:30:55.100Z,15.8
2017-10-11T10:32:13.810Z,15.8
2017-10-11T10:33:32.471Z,16
2017-10-11T10:34:51.136Z,16
2017-10-11T10:36:09.816Z,15.8
2017-10-11T10:37:28.478Z,15.3
2017-10-11T10:38:47.187Z,15.4
2017-10-11T10:40:05.898Z,15.8
2017-10-11T10:41:24.635Z,16.4
2017-10-11T10:42:43.331Z,16.5
2017-10-11T10:44:02.018Z,17
2017-10-11T10:45:20.684Z,18.2
2017-10-11T10:46:39.362Z,19
2017-10-11T10:47:58.066Z,19.4
2017-10-11T10:49:16.722Z,19.7
2017-10-11T10:50:35.390Z,20.2
2017-10-11T10:51:54.091Z,19.9
2017-10-11T10:53:12.802Z,19.6
2017-10-11T10:54:31.462Z,19.4
2017-10-11T10:55:50.124Z,19.2
2017-10-11T10:57:08.827Z,18.8
2017-10-11T10:58:27.545Z,18.5
2017-10-11T10:59:46.247Z,18.5
2017-10-11T11:01:04.959Z,18.3
2017-10-11T11:02:23.652Z,18.3
2017-10-11T11:03:42.352Z,18.3
2017-10-11T11:05:01.026Z,17.4
2017-10-11T11:06:19.687Z,17.3
2017-10-11T11:07:38.386Z,17.5
2017-10-11T11:08:57.089Z,17.3
2017-10-11T11:10:15.771Z,17.4
2017-10-11T11:11:34.484Z,17.6
2017-10-11T11:12:53.178Z,17.7
2017-10-11T11:14:11.854Z,17
2017-10-11T11:15:30.570Z,16.8
2017-10-11T11:16:49.233Z,16.8
2017-10-11T11:18:07.928Z,16.9
2017-10-11T11:19:26.643Z,16.8
2017-10-11T11:20:45.347Z,17.4
2017-10-11T11:22:04.015Z,17.7
2017-10-11T11:23:22.743Z,17.4
2017-10-11T11:24:41.404Z,17.6
2017-10-11T11:26:00.113Z,17.5
2017-10-11T11:27:18.777Z,17
2017-10-11T11:28:37.494Z,17.1
2017-10-11T11:29:56.196Z,17.3
2017-10-11T11:31:14.857Z,17.3
2017-10-11T11:32:33.525Z,17.2
2017-10-11T11:33:52.201Z,17.1
2017-10-11T11:35:10.884Z,16.9
2017-10-11T11:36:29.543Z,16.8
2017-10-11T11:37:48.211Z,16.7
2017-10-11T11:39:06.930Z,17.1
2017-10-11T11:40:25.631Z,17
2017-10-11T11:41:44.310Z,17.2
2017-10-11T11:43:02.971Z,17.1
2017-10-11T11:44:21.661Z,17.3
2017-10-11T11:45:40.355Z,17.5
2017-10-11T11:46:59.023Z,17.9
2017-10-11T11:48:17.698Z,18.2
2017-10-11T11:49:36.359Z,18.3
2017-10-11T11:50:55.028Z,18.1
2017-10-11T11:52:13.695Z,17.8
2017-10-11T11:53:32.374Z,17.7
2017-10-11T11:54:51.074Z,17.4
2017-10-11T11:56:09.738Z,17.2
2017-10-11T11:57:28.396Z,17
2017-10-11T11:58:47.064Z,16.7
2017-10-11T12:00:05.735Z,16.4
2017-10-11T12:01:24.456Z,16.5
2017-10-11T12:02:43.111Z,16.6
2017-10-11T12:04:01.805Z,16.2
2017-10-11T12:05:20.498Z,16
2017-10-11T12:06:39.173Z,16.1
2017-10-11T12:07:57.890Z,16.2
2017-10-11T12:09:16.555Z,16
2017-10-11T12:10:35.256Z,16
2017-10-11T12:11:53.921Z,16.1
2017-10-11T12:13:12.616Z,16.3
2017-10-11T12:14:31.274Z,16.3
2017-10-11T12:15:49.975Z,16.4
2017-10-11T12:17:08.688Z,16.6
2017-10-11T12:18:27.349Z,16.9
2017-10-11T12:19:46.049Z,17.7
2017-10-11T12:21:04.741Z,18.2
2017-10-11T12:22:23.399Z,18.2
2017-10-11T12:23:42.065Z,18.6
2017-10-11T12:25:00.730Z,18.2
2017-10-11T12:26:19.414Z,18.1
2017-10-11T12:27:38.125Z,18.3
2017-10-11T12:28:56.858Z,18.6
2017-10-11T12:30:15.527Z,19.8
2017-10-11T12:31:34.224Z,21.6
2017-10-11T12:32:52.892Z,24.3
2017-10-11T12:34:11.601Z,27.2
2017-10-11T12:35:30.263Z,29.4
2017-10-11T12:36:48.935Z,30.9
2017-10-11T12:38:07.608Z,30.9
2017-10-11T12:39:26.278Z,31.6
2017-10-11T12:40:44.971Z,32.2
2017-10-11T12:42:03.665Z,32.8
2017-10-11T12:43:22.365Z,34
2017-10-11T12:44:41.023Z,32.8
2017-10-11T12:45:59.683Z,33.2
2017-10-11T12:47:18.401Z,32.1
2017-10-11T12:48:37.070Z,32.4
2017-10-11T12:49:55.732Z,32.8
2017-10-11T12:51:14.399Z,33.2
2017-10-11T12:52:33.146Z,34.4
2017-10-11T12:53:51.819Z,34.4
2017-10-11T12:55:10.474Z,34.4
2017-10-11T12:56:29.146Z,34.3
2017-10-11T12:57:47.869Z,34.3
2017-10-11T12:59:06.563Z,34.4
2017-10-11T13:00:25.222Z,34.4
2017-10-11T13:01:43.936Z,34.3
2017-10-11T13:03:02.640Z,34.4
2017-10-11T13:04:21.372Z,34.5
2017-10-11T13:05:40.049Z,34.3
2017-10-11T13:06:58.746Z,34.4
2017-10-11T13:08:17.424Z,34.3
2017-10-11T13:09:36.146Z,34.5
2017-10-11T13:10:54.853Z,34.4
2017-10-11T13:12:13.522Z,34.5
2017-10-11T13:13:32.221Z,34.5
2017-10-11T13:14:50.882Z,34.5
2017-10-11T13:16:09.584Z,34.4
2017-10-11T13:17:28.248Z,34.4
2017-10-11T13:18:46.995Z,34.6
2017-10-11T13:20:05.656Z,34.5
2017-10-11T13:21:24.317Z,34.3
2017-10-11T13:22:42.982Z,33.2
2017-10-11T13:24:01.702Z,32.9
2017-10-11T13:25:20.362Z,33.2
2017-10-11T13:26:39.027Z,33.7
2017-10-11T13:27:57.694Z,32
2017-10-11T13:29:16.400Z,29
2017-10-11T13:30:35.119Z,25.5
2017-10-11T13:31:53.817Z,23.7
2017-10-11T13:33:12.538Z,22.4
2017-10-11T13:34:31.250Z,21.2
2017-10-11T13:35:49.921Z,20.3
2017-10-11T13:37:08.585Z,19.3
2017-10-11T13:38:27.246Z,18.7
2017-10-11T13:39:45.913Z,18.5
2017-10-11T13:41:04.586Z,18.1
2017-10-11T13:42:23.246Z,18.2
2017-10-11T13:43:41.911Z,18.1
2017-10-11T13:45:00.631Z,17.9
2017-10-11T13:46:19.297Z,17.7
2017-10-11T13:47:37.959Z,17.5
2017-10-11T13:48:56.620Z,17.6
2017-10-11T13:50:15.328Z,17.5
2017-10-11T13:51:33.985Z,17.4
2017-10-11T13:52:52.686Z,17.4
2017-10-11T13:54:11.403Z,17.5
2017-10-11T13:55:30.097Z,17.1
2017-10-11T13:56:48.759Z,17.1
2017-10-11T13:58:07.441Z,17.4
2017-10-11T13:59:26.105Z,17.3
2017-10-11T14:00:44.850Z,17.1
2017-10-11T14:02:03.522Z,16.9
2017-10-11T14:03:22.213Z,16.9
2017-10-11T14:04:40.907Z,16.9
2017-10-11T14:05:59.606Z,16.6
2017-10-11T14:07:18.290Z,16.6
2017-10-11T14:08:36.943Z,16.3
2017-10-11T14:09:55.604Z,16.1
2017-10-11T14:11:14.281Z,16.4
2017-10-11T14:12:33.004Z,16.9
2017-10-11T14:13:51.671Z,17.1
2017-10-11T14:15:10.331Z,17.1
2017-10-11T14:16:29.040Z,17.1
2017-10-11T14:17:47.708Z,16.8
2017-10-11T14:19:06.423Z,16.7
2017-10-11T14:20:25.108Z,16.9
2017-10-11T14:21:43.799Z,16.6
2017-10-11T14:23:02.471Z,16.5
2017-10-11T14:24:21.203Z,16.3
2017-10-11T14:25:39.875Z,15.8
2017-10-11T14:26:58.633Z,15.6
2017-10-11T14:28:17.299Z,15.5
2017-10-11T14:29:35.993Z,15.3
2017-10-11T14:30:54.697Z,15.1
2017-10-11T14:32:13.369Z,14.9
2017-10-11T14:33:32.034Z,14.9
2017-10-11T14:34:50.701Z,14.9
2017-10-11T14:36:09.410Z,15.1
2017-10-11T14:37:28.158Z,15.7
2017-10-11T14:38:46.822Z,15.8
2017-10-11T14:40:05.503Z,15.7
2017-10-11T14:41:24.171Z,16.1
2017-10-11T14:42:42.843Z,16.1
2017-10-11T14:44:01.512Z,15.8
2017-10-11T14:45:20.219Z,15.5
2017-10-11T14:46:38.879Z,15.3
2017-10-11T14:47:57.563Z,15.5
2017-10-11T14:49:16.256Z,15.5
2017-10-11T14:50:34.926Z,15.8
2017-10-11T14:51:53.642Z,16.2
2017-10-11T14:53:12.339Z,16.4
2017-10-11T14:54:31.082Z,16.4
2017-10-11T14:55:49.802Z,16.4
2017-10-11T14:57:08.479Z,16.4
2017-10-11T14:58:27.193Z,16.2
2017-10-11T14:59:45.862Z,16.2
2017-10-11T15:01:04.552Z,16
2017-10-11T15:02:23.220Z,16
2017-10-11T15:03:41.894Z,15.9
2017-10-11T15:05:00.555Z,16
2017-10-11T15:06:19.218Z,15.8
2017-10-11T15:07:37.879Z,15.9
2017-10-11T15:08:56.598Z,15.8
2017-10-11T15:10:15.315Z,15.7
2017-10-11T15:11:33.982Z,15.5
2017-10-11T15:12:52.693Z,15.4
2017-10-11T15:14:11.382Z,15.2
2017-10-11T15:15:30.047Z,15.2
2017-10-11T15:16:48.727Z,15
2017-10-11T15:18:07.398Z,14.9
2017-10-11T15:19:26.105Z,14.8
2017-10-11T15:20:44.767Z,14.9
2017-10-11T15:22:03.487Z,14.8
2017-10-11T15:23:22.150Z,14.6
2017-10-11T15:24:40.919Z,14.5
2017-10-11T15:25:59.588Z,14.5
2017-10-11T15:27:18.293Z,14.6
2017-10-11T15:28:36.973Z,14.7
2017-10-11T15:29:55.661Z,14.4
2017-10-11T15:31:14.410Z,14.2
2017-10-11T15:32:33.106Z,14.2
2017-10-11T15:33:51.777Z,14.2
2017-10-11T15:35:10.455Z,14.3
2017-10-11T15:36:29.119Z,14.2
2017-10-11T15:37:47.798Z,14.3
2017-10-11T15:39:06.497Z,14.4
2017-10-11T15:40:25.186Z,14.3
2017-10-11T15:41:43.852Z,14.2
2017-10-11T15:43:02.512Z,14
2017-10-11T15:44:21.175Z,14.1
2017-10-11T15:45:39.860Z,14
2017-10-11T15:46:58.517Z,14
2017-10-11T15:48:17.186Z,13.8
2017-10-11T15:49:35.877Z,13.7
2017-10-11T15:50:54.622Z,13.8
2017-10-11T15:53:32.961Z,13.9
2017-10-11T15:54:51.631Z,13.9
2017-10-11T15:56:10.335Z,13.9
2017-10-11T15:57:29.006Z,13.9
2017-10-11T15:58:47.674Z,13.9
2017-10-11T16:00:06.337Z,13.9
2017-10-11T16:01:25.037Z,13.9
2017-10-11T16:02:43.708Z,13.8
2017-10-11T16:04:02.369Z,13.8
2017-10-11T16:05:21.052Z,13.8
2017-10-11T16:06:39.726Z,13.8
2017-10-11T16:07:58.392Z,13.7
2017-10-11T16:09:17.065Z,13.7
2017-10-11T16:10:35.753Z,13.7
2017-10-11T16:11:54.464Z,13.6
2017-10-11T16:13:13.149Z,13.6
2017-10-11T16:14:31.869Z,13.5
2017-10-11T16:15:50.533Z,13.5
2017-10-11T16:17:09.293Z,13.5
2017-10-11T16:18:27.962Z,13.4
2017-10-11T16:19:46.627Z,13.5
2017-10-11T16:21:05.287Z,13.5
2017-10-11T16:22:23.959Z,13.4
2017-10-11T16:23:42.626Z,13.4
2017-10-11T16:25:01.323Z,13.3
2017-10-11T16:26:19.990Z,13.3
2017-10-11T16:27:38.692Z,13.3
2017-10-11T16:28:57.358Z,13.3
2017-10-11T16:30:16.075Z,13.2
2017-10-11T16:31:34.739Z,13.2
2017-10-11T16:32:53.452Z,13.2
2017-10-11T16:34:12.113Z,13.2
2017-10-11T16:35:30.838Z,13.2
2017-10-11T16:36:49.546Z,13.2
2017-10-11T16:38:08.244Z,13.2
2017-10-11T16:39:26.967Z,13.2
2017-10-11T16:40:45.672Z,13.2
2017-10-11T16:42:04.392Z,13.1
2017-10-11T16:43:23.093Z,13.2
2017-10-11T16:44:41.761Z,13.2
2017-10-11T16:46:00.422Z,13.1
2017-10-11T16:47:19.115Z,13.1
2017-10-11T16:48:37.841Z,13.1
2017-10-11T16:49:56.551Z,13
2017-10-11T16:51:15.233Z,13
2017-10-11T16:52:33.899Z,13.1
2017-10-11T16:53:52.603Z,13.1
2017-10-11T16:55:11.292Z,13.1
2017-10-11T16:56:29.957Z,13.1
2017-10-11T16:57:48.621Z,13.1
2017-10-11T16:59:07.330Z,13
2017-10-11T17:00:26.001Z,13
2017-10-11T17:01:44.680Z,12.9
2017-10-11T17:03:03.336Z,12.9
2017-10-11T17:04:22.025Z,12.9
2017-10-11T17:05:40.727Z,12.9
2017-10-11T17:06:59.392Z,12.7
2017-10-11T17:08:18.107Z,12.6
2017-10-11T17:09:36.777Z,12.5
2017-10-11T17:10:55.462Z,12.5
2017-10-11T17:12:14.187Z,12.5
2017-10-11T17:13:32.904Z,12.6
2017-10-11T17:14:51.594Z,12.5
2017-10-11T17:16:10.286Z,12.5
2017-10-11T17:17:28.989Z,12.5
2017-10-11T17:18:47.707Z,12.5
2017-10-11T17:20:06.373Z,12.5
2017-10-11T17:21:25.036Z,12.3
2017-10-11T17:22:43.703Z,12.2
2017-10-11T17:24:02.375Z,12.1
2017-10-11T17:25:21.080Z,12
2017-10-11T17:26:39.744Z,12
2017-10-11T17:27:58.411Z,12.1
2017-10-11T17:29:17.113Z,12.1
2017-10-11T17:30:35.860Z,12
2017-10-11T17:31:54.528Z,12
2017-10-11T17:33:13.194Z,12